createdAt,value
2019-01-11T00:00:54.252Z,23.37
2019-01-11T00:03:43.127Z,24.93
2019-01-11T00:06:32.096Z,26.80
2019-01-11T00:09:20.177Z,28.00
2019-01-11T00:12:08.819Z,26.27
2019-01-11T00:14:57.003Z,27.73
2019-01-11T00:31:21.681Z,29.23
2019-01-11T00:34:10.183Z,27.30
2019-01-11T00:36:58.590Z,23.10
2019-01-11T00:39:46.702Z,24.27
2019-01-11T00:42:34.622Z,26.07
2019-01-11T00:45:22.811Z,21.20
2019-01-11T00:48:10.985Z,22.50
2019-01-11T00:50:59.281Z,21.77
2019-01-11T00:53:47.471Z,22.20
2019-01-11T00:56:35.302Z,19.70
2019-01-11T00:59:23.944Z,22.40
2019-01-11T01:02:12.386Z,21.60
2019-01-11T01:05:00.746Z,21.40
2019-01-11T01:07:49.234Z,21.30
2019-01-11T01:10:37.875Z,19.57
2019-01-11T01:13:26.247Z,19.87
2019-01-11T01:16:14.519Z,20.30
2019-01-11T01:19:02.850Z,20.10
2019-01-11T01:21:51.478Z,17.67
2019-01-11T01:24:40.242Z,19.70
2019-01-11T01:27:28.556Z,19.57
2019-01-11T01:30:17.407Z,19.23
2019-01-11T01:33:06.062Z,19.53
2019-01-11T01:35:53.919Z,19.30
2019-01-11T01:38:42.443Z,20.77
2019-01-11T01:41:30.755Z,18.40
2019-01-11T01:44:18.446Z,18.10
2019-01-11T01:47:06.768Z,20.00
2019-01-11T01:49:55.219Z,17.90
2019-01-11T01:52:43.801Z,18.63
2019-01-11T01:55:32.150Z,17.90
2019-01-11T01:58:20.350Z,20.43
2019-01-11T02:01:07.926Z,16.27
2019-01-11T02:03:56.427Z,17.40
2019-01-11T02:06:44.663Z,18.50
2019-01-11T02:09:32.832Z,18.30
2019-01-11T02:12:21.335Z,17.87
2019-01-11T02:15:11.044Z,20.90
2019-01-11T02:17:59.100Z,18.87
2019-01-11T02:20:47.063Z,17.33
2019-01-11T02:23:35.423Z,18.10
2019-01-11T02:26:23.486Z,22.07
2019-01-11T02:29:12.267Z,20.13
2019-01-11T02:32:00.102Z,21.27
2019-01-11T02:34:51.650Z,21.03
2019-01-11T02:37:39.894Z,22.23
2019-01-11T02:40:27.710Z,22.40
2019-01-11T02:43:15.846Z,23.27
2019-01-11T02:46:04.466Z,24.37
2019-01-11T02:48:52.398Z,21.40
2019-01-11T02:51:40.720Z,24.00
2019-01-11T02:54:29.010Z,22.70
2019-01-11T02:57:16.991Z,19.10
2019-01-11T03:00:09.296Z,21.17
2019-01-11T03:02:57.742Z,19.77
2019-01-11T03:05:46.203Z,18.97
2019-01-11T03:08:34.080Z,18.37
2019-01-11T03:11:22.483Z,20.13
2019-01-11T03:14:10.457Z,19.60
2019-01-11T03:16:58.680Z,19.70
2019-01-11T03:19:47.903Z,20.80
2019-01-11T03:22:36.832Z,22.10
2019-01-11T03:25:24.993Z,20.97
2019-01-11T03:28:13.211Z,19.87
2019-01-11T03:31:07.340Z,21.90
2019-01-11T03:33:55.639Z,22.00
2019-01-11T03:36:43.330Z,24.03
2019-01-11T03:39:31.155Z,22.23
2019-01-11T03:42:18.904Z,22.70
2019-01-11T03:45:09.516Z,24.20
2019-01-11T03:47:58.002Z,22.30
2019-01-11T03:50:46.548Z,21.60
2019-01-11T03:53:35.151Z,23.60
2019-01-11T03:56:23.620Z,21.10
2019-01-11T03:59:11.838Z,26.47
2019-01-11T04:01:59.946Z,22.50
2019-01-11T04:04:48.398Z,20.87
2019-01-11T04:07:35.839Z,23.77
2019-01-11T04:10:24.682Z,24.20
2019-01-11T04:13:13.068Z,21.37
2019-01-11T04:16:01.454Z,21.37
2019-01-11T04:18:59.633Z,23.20
2019-01-11T04:22:06.835Z,22.70
2019-01-11T04:25:09.794Z,21.67
2019-01-11T04:27:57.796Z,24.63
2019-01-11T04:30:46.199Z,23.87
2019-01-11T04:33:34.271Z,25.63
2019-01-11T04:36:21.816Z,22.20
2019-01-11T04:39:09.771Z,25.57
2019-01-11T04:41:57.807Z,26.77
2019-01-11T04:44:45.799Z,25.90
2019-01-11T04:47:34.791Z,26.20
2019-01-11T04:50:22.892Z,24.77
2019-01-11T04:53:10.416Z,26.03
2019-01-11T04:55:58.746Z,28.90
2019-01-11T04:58:47.326Z,26.40
2019-01-11T05:01:35.870Z,30.33
2019-01-11T05:04:24.188Z,28.13
2019-01-11T05:07:11.780Z,26.67
2019-01-11T05:10:05.114Z,26.60
2019-01-11T05:12:53.791Z,25.57
2019-01-11T05:15:42.449Z,25.10
2019-01-11T05:18:30.616Z,28.40
2019-01-11T05:21:18.117Z,26.47
2019-01-11T05:24:06.651Z,28.10
2019-01-11T05:26:55.002Z,29.37
2019-01-11T05:29:43.983Z,27.57
2019-01-11T05:32:31.895Z,32.00
2019-01-11T05:35:19.953Z,34.20
2019-01-11T05:38:08.422Z,34.40
2019-01-11T05:40:56.131Z,33.87
2019-01-11T05:43:44.875Z,36.50
2019-01-11T05:46:33.798Z,35.53
2019-01-11T05:49:21.753Z,37.50
2019-01-11T05:52:09.743Z,35.77
2019-01-11T05:54:57.459Z,37.40
2019-01-11T05:58:04.792Z,47.27
2019-01-11T06:00:52.809Z,43.97
2019-01-11T06:03:41.239Z,44.83
2019-01-11T06:06:48.362Z,49.27
2019-01-11T06:09:36.680Z,47.13
2019-01-11T06:12:24.481Z,42.53
2019-01-11T06:15:13.091Z,40.50
2019-01-11T06:18:00.875Z,41.63
2019-01-11T06:20:48.547Z,41.97
2019-01-11T06:23:36.988Z,42.60
2019-01-11T06:26:25.356Z,43.13
2019-01-11T06:29:14.014Z,47.50
2019-01-11T06:32:01.587Z,47.40
2019-01-11T06:34:51.341Z,48.53
2019-01-11T06:37:40.123Z,46.73
2019-01-11T06:40:27.608Z,50.80
2019-01-11T06:43:16.503Z,51.03
2019-01-11T06:46:04.871Z,51.47
2019-01-11T06:48:53.094Z,50.07
2019-01-11T06:51:41.187Z,48.30
2019-01-11T06:54:29.459Z,52.43
2019-01-11T06:57:17.155Z,50.50
2019-01-11T07:00:08.451Z,44.90
2019-01-11T07:02:57.098Z,42.83
2019-01-11T07:05:45.003Z,41.17
2019-01-11T07:08:33.579Z,40.27
2019-01-11T07:11:21.972Z,36.77
2019-01-11T07:14:10.223Z,35.73
2019-01-11T07:16:58.431Z,33.90
2019-01-11T07:19:46.642Z,35.57
2019-01-11T07:22:34.956Z,40.33
2019-01-11T07:25:22.901Z,38.37
2019-01-11T07:28:13.728Z,38.83
2019-01-11T07:31:03.483Z,36.37
2019-01-11T07:33:52.304Z,35.17
2019-01-11T07:36:48.926Z,34.90
2019-01-11T07:39:37.323Z,38.70
2019-01-11T07:42:25.530Z,43.43
2019-01-11T07:45:14.047Z,46.07
2019-01-11T07:48:01.871Z,49.27
2019-01-11T07:50:50.062Z,45.93
2019-01-11T07:53:38.419Z,50.70
2019-01-11T07:56:27.116Z,51.27
2019-01-11T07:59:16.066Z,52.30
2019-01-11T08:02:05.082Z,46.90
2019-01-11T08:04:53.447Z,47.80
2019-01-11T08:07:41.735Z,52.30
2019-01-11T08:10:30.195Z,52.40
2019-01-11T08:13:17.990Z,51.73
2019-01-11T08:16:06.366Z,52.13
2019-01-11T08:18:54.018Z,55.13
2019-01-11T08:21:42.271Z,55.33
2019-01-11T08:24:30.153Z,47.60
2019-01-11T08:27:18.407Z,37.33
2019-01-11T08:30:08.501Z,38.03
2019-01-11T08:32:56.537Z,35.40
2019-01-11T08:35:44.836Z,38.93
2019-01-11T08:38:33.484Z,40.20
2019-01-11T08:41:21.236Z,42.87
2019-01-11T08:44:09.878Z,42.13
2019-01-11T08:46:57.681Z,43.50
2019-01-11T08:49:46.529Z,51.27
2019-01-11T08:52:35.184Z,51.43
2019-01-11T08:55:23.795Z,50.07
2019-01-11T08:58:12.331Z,51.33
2019-01-11T09:01:00.579Z,51.67
2019-01-11T09:03:48.736Z,49.03
2019-01-11T09:06:36.920Z,46.23
2019-01-11T09:09:25.020Z,44.57
2019-01-11T09:12:13.143Z,41.93
2019-01-11T09:15:01.676Z,41.47
2019-01-11T09:18:12.469Z,42.43
2019-01-11T09:21:00.088Z,41.53
2019-01-11T09:23:48.311Z,45.47
2019-01-11T09:26:36.556Z,51.27
2019-01-11T09:29:24.140Z,54.77
2019-01-11T09:32:12.353Z,52.20
2019-01-11T09:35:00.728Z,55.57
2019-01-11T09:37:49.313Z,49.40
2019-01-11T09:40:37.627Z,55.73
2019-01-11T09:43:25.576Z,56.40
2019-01-11T09:46:14.159Z,59.80
2019-01-11T09:49:02.227Z,55.37
2019-01-11T09:51:50.080Z,58.13
2019-01-11T09:54:38.384Z,53.50
2019-01-11T09:57:26.463Z,53.67
2019-01-11T10:00:18.724Z,50.00
2019-01-11T10:03:08.936Z,49.33
2019-01-11T10:05:56.934Z,52.80
2019-01-11T10:08:44.841Z,56.00
2019-01-11T10:11:33.348Z,57.43
2019-01-11T10:14:21.939Z,51.97
2019-01-11T10:17:10.572Z,55.73
2019-01-11T10:19:59.187Z,52.93
2019-01-11T10:22:47.135Z,53.20
2019-01-11T10:25:35.639Z,49.10
2019-01-11T10:28:23.732Z,52.50
2019-01-11T10:31:12.152Z,52.70
2019-01-11T10:34:00.117Z,53.37
2019-01-11T10:36:48.621Z,56.47
2019-01-11T10:39:36.896Z,53.73
2019-01-11T10:42:25.743Z,56.80
2019-01-11T10:45:16.628Z,59.37
2019-01-11T10:48:05.292Z,58.93
2019-01-11T10:50:53.487Z,52.13
2019-01-11T10:53:41.049Z,55.93
2019-01-11T10:56:29.596Z,55.43
2019-01-11T10:59:17.499Z,57.37
2019-01-11T11:02:06.632Z,54.33
2019-01-11T11:04:54.528Z,55.67
2019-01-11T11:07:43.395Z,51.20
2019-01-11T11:10:31.566Z,53.63
2019-01-11T11:13:19.496Z,48.83
2019-01-11T11:16:08.009Z,52.17
2019-01-11T11:18:56.256Z,50.13
2019-01-11T11:21:44.797Z,50.97
2019-01-11T11:24:33.483Z,48.47
2019-01-11T11:27:21.752Z,55.50
2019-01-11T11:30:11.655Z,50.50
2019-01-11T11:33:01.127Z,48.20
2019-01-11T11:35:48.779Z,51.23
2019-01-11T11:38:37.251Z,51.00
2019-01-11T11:41:25.664Z,52.20
2019-01-11T11:44:13.911Z,53.93
2019-01-11T11:47:01.804Z,54.77
2019-01-11T11:49:50.312Z,52.60
2019-01-11T11:52:38.985Z,59.83
2019-01-11T11:55:27.358Z,55.20
2019-01-11T11:58:15.694Z,55.57
2019-01-11T12:01:05.725Z,61.00
2019-01-11T12:03:54.220Z,60.37
2019-01-11T12:06:41.868Z,59.43
2019-01-11T12:09:30.537Z,56.67
2019-01-11T12:12:18.535Z,63.17
2019-01-11T12:15:07.508Z,51.37
2019-01-11T12:17:55.331Z,57.03
2019-01-11T12:20:43.726Z,62.80
2019-01-11T12:23:31.702Z,56.37
2019-01-11T12:26:20.808Z,61.53
2019-01-11T12:29:09.832Z,54.90
2019-01-11T12:31:57.592Z,59.93
2019-01-11T12:34:45.840Z,54.30
2019-01-11T12:37:34.780Z,53.77
2019-01-11T12:40:23.025Z,54.43
2019-01-11T12:43:11.067Z,52.90
2019-01-11T12:45:59.327Z,53.57
2019-01-11T12:48:47.750Z,46.17
2019-01-11T12:51:36.895Z,49.20
2019-01-11T12:54:25.039Z,45.47
2019-01-11T12:57:13.381Z,43.67
2019-01-11T13:00:01.454Z,42.73
2019-01-11T13:02:49.615Z,44.20
2019-01-11T13:05:37.879Z,43.97
2019-01-11T13:08:26.403Z,40.47
2019-01-11T13:11:14.598Z,38.60
2019-01-11T13:14:02.265Z,38.63
2019-01-11T13:16:50.692Z,40.20
2019-01-11T13:19:39.220Z,37.10
2019-01-11T13:22:27.359Z,37.20
2019-01-11T13:25:15.728Z,37.07
2019-01-11T13:28:04.136Z,36.73
2019-01-11T13:30:52.499Z,39.20
2019-01-11T13:33:41.055Z,37.73
2019-01-11T13:36:29.246Z,34.37
2019-01-11T13:39:17.616Z,33.17
2019-01-11T13:42:06.237Z,32.37
2019-01-11T13:44:54.671Z,33.50
2019-01-11T13:47:43.526Z,33.67
2019-01-11T13:50:42.151Z,32.17
2019-01-11T13:53:30.500Z,34.67
2019-01-11T13:56:18.859Z,30.40
2019-01-11T13:59:06.743Z,27.57
2019-01-11T14:01:54.394Z,24.90
2019-01-11T14:04:42.244Z,29.30
2019-01-11T14:07:30.479Z,22.60
2019-01-11T14:10:18.753Z,22.60
2019-01-11T14:13:07.598Z,18.03
2019-01-11T14:15:55.788Z,17.03
2019-01-11T14:18:44.432Z,18.97
2019-01-11T14:21:32.332Z,15.23
2019-01-11T14:24:20.444Z,15.23
2019-01-11T14:27:09.428Z,12.80
2019-01-11T14:29:57.471Z,10.30
2019-01-11T14:32:45.655Z,11.00
2019-01-11T14:35:34.227Z,11.20
2019-01-11T14:38:21.880Z,10.17
2019-01-11T14:41:11.100Z,8.80
2019-01-11T14:43:59.264Z,9.27
2019-01-11T14:46:47.707Z,9.47
2019-01-11T14:49:36.873Z,8.73
2019-01-11T14:52:25.504Z,9.00
2019-01-11T14:55:13.867Z,8.33
2019-01-11T14:58:02.124Z,8.67
2019-01-11T15:00:50.864Z,8.60
2019-01-11T15:03:39.091Z,8.07
2019-01-11T15:06:26.744Z,8.63
2019-01-11T15:09:15.172Z,8.70
2019-01-11T15:12:03.821Z,8.20
2019-01-11T15:14:53.773Z,7.97
2019-01-11T15:17:42.164Z,7.93
2019-01-11T15:20:30.465Z,9.27
2019-01-11T15:23:18.479Z,8.47
2019-01-11T15:26:06.967Z,10.53
2019-01-11T15:28:55.336Z,9.97
2019-01-11T15:31:43.406Z,9.43
2019-01-11T15:34:31.720Z,8.37
2019-01-11T15:37:20.212Z,8.37
2019-01-11T15:40:17.887Z,9.10
2019-01-11T15:43:06.512Z,8.20
2019-01-11T15:46:02.440Z,7.97
2019-01-11T15:48:50.912Z,7.80
2019-01-11T15:51:39.487Z,9.80
2019-01-11T15:54:27.644Z,8.00
2019-01-11T15:57:15.888Z,7.80
2019-01-11T16:00:05.297Z,8.37
2019-01-11T16:02:53.883Z,9.97
2019-01-11T16:05:41.425Z,9.80
2019-01-11T16:08:29.664Z,8.67
2019-01-11T16:11:40.417Z,8.13
2019-01-11T16:14:54.332Z,8.37
2019-01-11T16:17:42.612Z,8.13
2019-01-11T16:20:30.779Z,8.83
2019-01-11T16:23:18.705Z,7.20
2019-01-11T16:26:06.819Z,7.77
2019-01-11T16:28:54.687Z,6.80
2019-01-11T16:31:43.142Z,7.70
2019-01-11T16:34:31.618Z,6.73
2019-01-11T16:37:20.031Z,7.20
2019-01-11T16:40:08.988Z,6.77
2019-01-11T16:42:56.805Z,8.17
2019-01-11T16:45:44.827Z,6.80
2019-01-11T16:48:33.929Z,7.80
2019-01-11T16:51:22.175Z,7.43
2019-01-11T16:54:10.194Z,7.70
2019-01-11T16:56:59.311Z,8.67
2019-01-11T16:59:47.974Z,7.93
2019-01-11T17:02:36.687Z,8.50
2019-01-11T17:05:25.684Z,7.20
2019-01-11T17:08:13.587Z,7.70
2019-01-11T17:11:01.386Z,8.50
2019-01-11T17:13:50.199Z,9.53
2019-01-11T17:16:38.267Z,9.70
2019-01-11T17:19:26.623Z,9.80
2019-01-11T17:22:14.399Z,18.47
2019-01-11T17:25:02.759Z,11.50
2019-01-11T17:27:51.439Z,10.30
2019-01-11T17:30:40.053Z,10.30
2019-01-11T17:33:28.611Z,10.70
2019-01-11T17:36:16.833Z,11.43
2019-01-11T17:39:08.344Z,11.70
2019-01-11T17:41:57.032Z,10.77
2019-01-11T17:44:44.883Z,9.37
2019-01-11T17:47:32.718Z,9.60
2019-01-11T17:50:20.915Z,8.50
2019-01-11T17:53:08.979Z,7.50
2019-01-11T17:55:56.950Z,8.97
2019-01-11T17:58:45.172Z,7.83
2019-01-11T18:01:33.017Z,6.37
2019-01-11T18:04:21.370Z,7.57
2019-01-11T18:07:10.050Z,8.23
2019-01-11T18:09:58.629Z,7.70
2019-01-11T18:12:46.825Z,9.00
2019-01-11T18:15:35.035Z,8.53
2019-01-11T18:18:23.439Z,7.20
2019-01-11T18:21:11.943Z,8.63
2019-01-11T18:24:00.547Z,8.97
2019-01-11T18:26:49.248Z,9.10
2019-01-11T18:29:37.819Z,8.13
2019-01-11T18:32:26.345Z,7.07
2019-01-11T18:35:14.540Z,7.90
2019-01-11T18:38:03.560Z,8.13
2019-01-11T18:40:51.627Z,7.03
2019-01-11T18:43:39.193Z,7.93
2019-01-11T18:46:27.660Z,7.53
2019-01-11T18:49:15.520Z,7.23
2019-01-11T18:52:03.799Z,8.77
2019-01-11T18:54:53.496Z,7.17
2019-01-11T18:57:41.456Z,7.17
2019-01-11T19:00:30.384Z,8.20
2019-01-11T19:03:18.444Z,7.27
2019-01-11T19:06:06.550Z,8.37
2019-01-11T19:08:55.286Z,7.47
2019-01-11T19:11:44.011Z,8.33
2019-01-11T19:14:32.183Z,8.33
2019-01-11T19:17:20.410Z,9.73
2019-01-11T19:20:14.687Z,10.97
2019-01-11T19:23:03.699Z,8.10
2019-01-11T19:25:51.571Z,9.50
2019-01-11T19:28:39.846Z,10.60
2019-01-11T19:31:28.697Z,9.20
2019-01-11T19:34:16.659Z,9.40
2019-01-11T19:37:05.395Z,9.17
2019-01-11T19:39:53.388Z,8.57
2019-01-11T19:42:42.484Z,8.20
2019-01-11T19:45:31.109Z,8.20
2019-01-11T19:48:19.050Z,8.90
2019-01-11T19:51:06.771Z,7.80
2019-01-11T19:53:55.067Z,7.40
2019-01-11T19:56:43.538Z,7.83
2019-01-11T19:59:31.457Z,25.43
2019-01-11T20:02:20.295Z,7.10
2019-01-11T20:05:09.327Z,9.83
2019-01-11T20:07:57.698Z,9.80
2019-01-11T20:10:45.346Z,8.83
2019-01-11T20:13:33.539Z,7.43
2019-01-11T20:16:21.557Z,7.30
2019-01-11T20:19:10.054Z,8.30
2019-01-11T20:21:58.040Z,7.97
2019-01-11T20:24:47.291Z,6.33
2019-01-11T20:27:35.739Z,7.43
2019-01-11T20:30:28.606Z,7.70
2019-01-11T20:33:16.891Z,7.00
2019-01-11T20:36:05.366Z,7.00
2019-01-11T20:38:53.780Z,7.00
2019-01-11T20:41:42.558Z,6.33
2019-01-11T20:44:30.841Z,6.17
2019-01-11T20:47:18.991Z,6.30
2019-01-11T20:50:09.577Z,5.10
2019-01-11T20:52:58.544Z,6.17
2019-01-11T20:55:46.723Z,6.00
2019-01-11T20:58:35.301Z,6.63
2019-01-11T21:01:23.531Z,7.13
2019-01-11T21:04:11.739Z,5.87
2019-01-11T21:07:00.023Z,6.70
2019-01-11T21:09:48.830Z,5.87
2019-01-11T21:12:37.272Z,7.13
2019-01-11T21:15:26.812Z,8.23
2019-01-11T21:18:14.491Z,6.10
2019-01-11T21:21:02.992Z,7.00
2019-01-11T21:23:50.766Z,6.47
2019-01-11T21:26:39.358Z,6.03
2019-01-11T21:29:27.875Z,6.23
2019-01-11T21:32:16.212Z,5.97
2019-01-11T21:35:05.399Z,7.10
2019-01-11T21:37:53.855Z,7.70
2019-01-11T21:40:42.584Z,5.90
2019-01-11T21:43:31.042Z,5.80
2019-01-11T21:46:19.287Z,4.60
2019-01-11T21:49:07.777Z,6.20
2019-01-11T21:51:56.128Z,5.70
2019-01-11T21:54:44.276Z,5.50
2019-01-11T21:57:32.577Z,21.13
2019-01-11T22:00:23.692Z,15.57
2019-01-11T22:03:14.999Z,6.23
2019-01-11T22:06:03.367Z,10.67
2019-01-11T22:08:51.937Z,5.23
2019-01-11T22:11:40.477Z,7.07
2019-01-11T22:14:29.096Z,7.67
2019-01-11T22:17:16.792Z,5.60
2019-01-11T22:20:05.534Z,5.43
2019-01-11T22:22:54.126Z,5.30
2019-01-11T22:25:41.928Z,5.93
2019-01-11T22:28:30.126Z,5.30
2019-01-11T22:31:18.544Z,5.33
2019-01-11T22:34:06.634Z,4.67
2019-01-11T22:36:55.095Z,4.73
2019-01-11T22:39:43.299Z,4.90
2019-01-11T22:42:31.320Z,5.40
2019-01-11T22:45:19.471Z,5.17
2019-01-11T22:48:08.276Z,5.47
2019-01-11T22:50:56.480Z,5.00
2019-01-11T22:53:44.239Z,5.50
2019-01-11T22:56:32.135Z,5.90
2019-01-11T22:59:20.751Z,6.50
2019-01-11T23:02:40.439Z,5.70
2019-01-11T23:05:28.057Z,6.33
2019-01-11T23:08:19.057Z,5.80
2019-01-11T23:11:34.432Z,5.03
2019-01-11T23:14:22.383Z,5.10
2019-01-11T23:17:47.694Z,6.00
2019-01-11T23:20:35.531Z,5.50
2019-01-11T23:23:23.640Z,6.07
2019-01-11T23:26:11.486Z,5.40
2019-01-11T23:28:59.627Z,4.90
2019-01-11T23:31:47.355Z,5.70
2019-01-11T23:34:35.391Z,5.10
2019-01-11T23:37:23.010Z,4.83
2019-01-11T23:40:13.407Z,7.07
2019-01-11T23:43:01.503Z,6.80
2019-01-11T23:45:50.351Z,5.87
2019-01-11T23:48:38.406Z,5.70
2019-01-11T23:51:27.019Z,5.50
2019-01-11T23:54:15.748Z,5.80
2019-01-11T23:57:04.506Z,6.00
2019-01-11T23:59:52.955Z,4.40
